Hamilton, KS

5:47 PM CDT on July 13, 2014 (GMT -0500)
Toronto, KS (KKSTORON4) Elev 971 ft | 37.80 °N, 95.95 °W | Change Station

Current weather conditions updated 2 minutes ago

Partly Cloudy
Partly Cloudy
87.8 °F
Feels Like 95 °F
N
1.0
Wind Variable Wind from NW
Gusts 3.0 mph

Tomorrow is forecast to be Cooler than today. Afternoon showers and thunderstorms.

Today
High -- | Low -- °F
--% Chance of Precip.
Yesterday
High -- | Low -- °F
Precip. -- in
6:12 AM 8:47 PM
Full, 97% visible
Pressure 29.98 in
Visibility 10.0 miles
Clouds Few 4300 ft
Heat Index 95 °F
Dew Point 72 °F
Humidity 60%
Rainfall 0.00 in
Snow Depth Not available.
UV 6 out of 12
Pollen 3.70 out of 12
Air Quality Not available.
Flu Activity No Activity
METAR KEMP 132153Z AUTO 01006KT 10SM FEW043 29/20 A3001 RMK AO2 SLP150 T02890200

More Conditions Fewer Conditions

Pressure 29.98 in
Visibility 10.0 miles
Clouds Few 4300 ft
Heat Index 95 °F
Dew Point 72 °F
Humidity 60%
Rainfall 0.00 in
Snow Depth Not available.
UV 6 out of 12
Pollen 3.70 out of 12
Air Quality Not available.
Flu Activity No Activity
METAR KEMP 132153Z AUTO 01006KT 10SM FEW043 29/20 A3001 RMK AO2 SLP150 T02890200

More Conditions Fewer Conditions

10-Day Weather Forecast

Almanac

Astronomy

Jul. 13, 2014 Rise Set
Actual Time 6:12 AM CDT 8:47 PM CDT
Civil Twilight 5:42 AM CDT 9:18 PM CDT
Nautical Twilight 5:04 AM CDT 9:56 PM CDT
Astronomical Twilight 4:21 AM CDT 10:39 PM CDT
Moon 9:39 PM CDT 7:42 AM CDT
Length of Visible Light 15h 36m
Length of Day
14h 34m
Tomorrow will be 1m 11s shorter.
Full, 97% of the Moon is Illuminated
Today
Full
Jul 18
Last Quarter
Jul 26
New
Aug 3
First Quarter
Aug 10
Full

Today's Extremes

State Highs State Lows

Community

WunderPhotos

Upload Photos

1,733,431 photos uploaded!

Nearby

Snow Depth

Station Depth Elevation
No new snow has been reported.

Earthquake Activity

City Distance Mag. Time & Date
Perry, Oklahoma 143 miles 2.5 8:59 AM CDT
2014-07-07
Stillwater, Oklahoma 138 miles 2.6 8:48 AM CDT
2014-07-07
Helena, Oklahoma 137 miles 3.0 2:44 AM CDT
2014-07-07
Perkins, Oklahoma 144 miles 2.6 10:56 PM CDT
2014-07-06
Minimum magnitude displayed is 2.5.

Coastal Water Temperatures

Place Temperature
No Stations Reporting

Nearby Weather Stations

Station Location Temp. Heat Index Dew Point Humidity Wind Precip. Elev Updated Type
Toronto, KS, Toronto, KS 87.8 °F 95 °F 72 °F 60% NW  at  1.0 mph 0.00 in / hr 971 ft 5:45 PM CDT Normal
T-K Weather Station West Hartford, Kansa, Hartford, KS 87.1 °F 93 °F 71 °F 59% NNW  at  3.2 mph - / hr 1129 ft 5:33 PM CDT Normal
HADS VERDIGRIS RIVER AT TORONTO KS, Toronto, KS 90 °F 94 °F 68 °F 48% WNW  at  2 mph 0.00 in / hr 960 ft 4:30 PM CDT MADIS
HADS FALL RIVER LAKE NEAR FALL RIVER KS, Fall River, KS 91 °F 99 °F 73 °F 55% NNE  at  7 mph 0.00 in / hr 1020 ft 5:00 PM CDT MADIS

Show More Stations Show Fewer Stations